メインページ
METAR-TAF:

METAR-TAF

空港 :

ストックホルム・アーランダ空港

ストックホルム・アーランダ, スウェーデン

緯度: 59-39N, 経度: 017-57E, 海抜: 38m

現時点の気象観測

当レポートは42分前の09:50(UTC)に作成
西/南西の風 20kt、最大32ktの突風を伴う
気温 16°C
湿度 59%
気圧 1002 hPa
視程10km以上
高度4000ftの雲は散在している
高度4500ftの千切れ雲あり

METAR: ESSA 190950Z 24020G32KT 9999 SCT040 BKN045 16/08 Q1002 NOSIG

時間: 12:32 (10:32 UTC)

予報

当レポートは5時間2分前の05:30(UTC)に作成
予報は19日の 06時(UTC)から 20日の 06時(UTC)まで有効
西/南西の風 18kt、最大32ktの突風を伴う
視程10km以上
高度4000ftの千切れ雲あり
確率 40%
19日の 08時(UTC)から 19日の 12時(UTC)まで
高度4000ftの雲は散在している, 積乱雲.
19日の 18時(UTC)から 19日の 20時(UTC)まで徐々に
西の風 12kt、最大22ktの突風を伴う

TAF: ESSA 190530Z 1906/2006 25018G32KT 9999 BKN040 PROB40 1908/1912 SCT040CB BECMG 1918/1920 26012G22KT

4,000以上の空港の気象観測と天気予報(METAR報とTAF報)

利用可能な観測所は地図上に黄色い丸と赤い丸で示す。

丸の上にカーソルを重ねると観測所名を参照できる。

次にクリックすると気象観測と天気予報を参照できる。

マップの切り替え:黒色「×」印の緑ボタンをクリックして拡大、「-」印の緑ボタンをクリックして縮小、緑色の三角印をクリックして隣りの地図に切り替え


METAR-TAF: